Time;durP1;ratioP1;P1;durP2;ratioP2;P2;SDS_P1;SDS_P2;PMS_P1;PMS_P2;Temp;Humidity;BMP_temperature;BMP_pressure;BME280_temperature;BME280_humidity;BME280_pressure;Samples;Min_cycle;Max_cycle;Signal;HPM_P1;HPM_P2
2023/05/03 00:00:48;;;;;;;8.75;7.45;;;10.50;77.30;;;;;;5017960;28;20080;-64
2023/05/03 00:03:13;;;;;;;8.95;7.45;;;10.50;77.30;;;;;;5019317;28;20246;-64
2023/05/03 00:05:39;;;;;;;8.40;7.60;;;10.50;77.30;;;;;;5018020;28;20045;-64
2023/05/03 00:08:04;;;;;;;8.20;7.40;;;10.40;77.40;;;;;;5016324;28;20049;-64
2023/05/03 00:10:30;;;;;;;8.38;7.35;;;10.40;77.70;;;;;;5017118;28;20084;-64
2023/05/03 00:12:56;;;;;;;12.40;10.57;;;10.40;77.80;;;;;;5018175;28;20038;-64
2023/05/03 00:15:22;;;;;;;16.92;13.85;;;10.30;77.70;;;;;;5015245;28;20042;-63
2023/05/03 00:17:47;;;;;;;12.93;11.38;;;10.30;77.70;;;;;;5014053;28;20406;-64
2023/05/03 00:20:14;;;;;;;8.13;7.28;;;10.30;77.60;;;;;;5015459;28;20056;-64
2023/05/03 00:22:39;;;;;;;8.05;6.72;;;10.30;77.50;;;;;;5016256;28;20091;-64
2023/05/03 00:25:07;;;;;;;6.63;6.03;;;10.20;77.60;;;;;;5016190;28;20034;-64
2023/05/03 00:27:32;;;;;;;6.60;5.55;;;10.10;77.60;;;;;;5017979;28;20030;-64
2023/05/03 00:29:58;;;;;;;6.18;5.57;;;10.00;77.90;;;;;;5017968;28;20606;-64
2023/05/03 00:32:24;;;;;;;5.80;5.30;;;10.00;78.20;;;;;;5018660;28;20334;-64
2023/05/03 00:34:53;;;;;;;7.00;5.40;;;10.00;78.40;;;;;;5015086;28;20033;-64
2023/05/03 00:37:20;;;;;;;9.82;5.50;;;9.90;78.40;;;;;;5027553;28;20033;-64
2023/05/03 00:39:45;;;;;;;7.15;5.28;;;9.80;78.20;;;;;;5015572;28;20056;-64
2023/05/03 00:42:11;;;;;;;6.50;5.90;;;9.80;78.40;;;;;;5014943;28;20050;-64
2023/05/03 00:44:36;;;;;;;7.65;6.60;;;9.70;78.50;;;;;;5016590;28;20030;-64
2023/05/03 00:47:03;;;;;;;7.93;6.43;;;9.70;78.70;;;;;;5017637;28;20044;-64
2023/05/03 00:49:29;;;;;;;10.07;7.45;;;9.60;78.70;;;;;;5014084;28;20416;-64
2023/05/03 00:51:56;;;;;;;8.85;6.55;;;9.60;78.90;;;;;;5015478;28;20084;-64
2023/05/03 00:54:21;;;;;;;7.10;6.40;;;9.60;79.10;;;;;;5014993;28;20038;-64
2023/05/03 00:56:47;;;;;;;8.13;6.65;;;9.60;79.30;;;;;;5012701;28;20048;-64
2023/05/03 00:59:13;;;;;;;7.65;6.85;;;9.50;79.10;;;;;;5015935;28;20034;-64
2023/05/03 01:01:39;;;;;;;7.43;6.55;;;9.50;79.10;;;;;;5021326;28;20026;-64
2023/05/03 01:04:06;;;;;;;8.07;6.70;;;9.50;79.10;;;;;;5015849;28;20048;-64
2023/05/03 01:06:31;;;;;;;7.00;6.25;;;9.50;79.10;;;;;;5015073;28;20674;-64
2023/05/03 01:09:12;;;;;;;7.70;6.15;;;9.50;79.10;;;;;;5015028;28;20302;-64
2023/05/03 01:12:07;;;;;;;6.93;5.93;;;9.50;79.40;;;;;;5013007;28;20034;-64
2023/05/03 01:14:38;;;;;;;8.23;6.50;;;9.40;79.30;;;;;;4997944;28;20037;-64
2023/05/03 01:17:10;;;;;;;8.13;6.25;;;9.40;79.10;;;;;;4995169;28;20037;-64
2023/05/03 01:19:47;;;;;;;6.75;6.13;;;9.40;79.20;;;;;;4995885;28;20035;-63
2023/05/03 01:22:40;;;;;;;8.23;6.45;;;9.30;79.00;;;;;;4995458;28;20027;-64
2023/05/03 01:25:11;;;;;;;6.93;6.22;;;9.30;79.70;;;;;;5000170;28;20044;-64
2023/05/03 01:27:38;;;;;;;8.75;6.90;;;9.20;79.10;;;;;;5013698;28;22022;-64
2023/05/03 01:30:06;;;;;;;9.25;6.97;;;9.20;79.10;;;;;;5014092;28;20049;-64
2023/05/03 01:32:58;;;;;;;8.35;7.45;;;9.10;79.10;;;;;;5013270;28;20138;-64
2023/05/03 01:35:51;;;;;;;9.73;7.00;;;9.10;79.60;;;;;;5014324;28;20042;-64
2023/05/03 01:38:19;;;;;;;8.10;7.20;;;9.10;79.80;;;;;;5012307;28;20037;-64
2023/05/03 01:40:54;;;;;;;7.07;5.95;;;9.00;79.20;;;;;;5013191;28;20045;-63
2023/05/03 01:43:22;;;;;;;7.05;6.30;;;9.00;79.30;;;;;;5013820;28;20095;-63
2023/05/03 01:45:48;;;;;;;7.55;6.10;;;9.00;79.40;;;;;;5013931;28;20095;-64
2023/05/03 01:48:16;;;;;;;8.25;5.95;;;9.00;79.40;;;;;;5012577;28;20128;-64
2023/05/03 01:50:41;;;;;;;7.57;5.90;;;9.00;79.40;;;;;;5012412;28;20124;-64
2023/05/03 01:53:07;;;;;;;6.97;5.70;;;9.00;79.30;;;;;;5013117;28;20124;-64
2023/05/03 01:55:32;;;;;;;8.27;5.70;;;8.90;79.20;;;;;;5013505;28;20059;-64
2023/05/03 01:57:58;;;;;;;7.75;4.97;;;8.90;79.10;;;;;;5013944;28;20353;-64
2023/05/03 02:00:24;;;;;;;5.20;4.70;;;8.90;79.20;;;;;;5010195;28;20479;-64
2023/05/03 02:02:50;;;;;;;5.28;4.78;;;8.90;79.20;;;;;;5012641;28;20037;-64
2023/05/03 02:05:15;;;;;;;5.57;4.93;;;8.90;78.90;;;;;;5011570;28;20029;-64
2023/05/03 02:07:41;;;;;;;5.63;5.05;;;8.90;79.80;;;;;;5015859;28;20049;-64
2023/05/03 02:10:07;;;;;;;6.43;5.43;;;8.90;78.80;;;;;;5016610;28;20041;-64
2023/05/03 02:12:33;;;;;;;5.32;4.82;;;8.90;78.60;;;;;;5017283;28;20029;-65
2023/05/03 02:14:58;;;;;;;5.10;4.60;;;8.90;78.60;;;;;;5017697;28;20707;-64
2023/05/03 02:17:25;;;;;;;6.13;5.10;;;8.80;78.50;;;;;;5018174;28;20037;-64
2023/05/03 02:19:51;;;;;;;5.38;4.88;;;8.80;78.50;;;;;;5017660;28;20037;-64
2023/05/03 02:22:17;;;;;;;6.13;5.13;;;8.70;78.50;;;;;;5016428;28;20092;-64
2023/05/03 02:24:43;;;;;;;7.90;5.15;;;8.70;78.50;;;;;;5017540;28;20527;-63
2023/05/03 02:27:08;;;;;;;6.45;5.85;;;8.70;78.60;;;;;;5017386;28;20147;-64
2023/05/03 02:29:34;;;;;;;6.80;5.93;;;8.60;78.70;;;;;;5014620;28;20045;-64
2023/05/03 02:31:59;;;;;;;8.40;6.20;;;8.50;78.80;;;;;;5014676;28;20038;-64
2023/05/03 02:34:26;;;;;;;6.35;5.75;;;8.50;78.90;;;;;;5016192;28;20173;-64
2023/05/03 02:36:52;;;;;;;7.03;5.78;;;8.40;79.10;;;;;;5017487;28;20049;-64
2023/05/03 02:39:18;;;;;;;7.13;5.72;;;8.40;79.20;;;;;;5015899;28;20140;-64
2023/05/03 02:41:43;;;;;;;6.20;5.60;;;8.30;79.30;;;;;;5017837;28;20034;-64
2023/05/03 02:44:09;;;;;;;7.35;5.90;;;8.30;79.40;;;;;;5017132;28;20565;-64
2023/05/03 02:46:34;;;;;;;10.02;6.07;;;8.30;79.40;;;;;;5017223;28;20057;-64
2023/05/03 02:49:00;;;;;;;6.57;5.93;;;8.30;79.30;;;;;;5017630;28;20038;-64
2023/05/03 02:51:26;;;;;;;6.63;6.00;;;8.30;79.40;;;;;;5014880;28;20505;-64
2023/05/03 02:53:51;;;;;;;8.15;6.25;;;8.20;79.40;;;;;;5016139;28;20038;-64
2023/05/03 02:56:17;;;;;;;6.85;6.15;;;8.20;79.50;;;;;;5015709;28;20492;-64
2023/05/03 02:58:42;;;;;;;8.70;7.13;;;8.20;79.50;;;;;;5017543;28;20384;-64
2023/05/03 03:01:09;;;;;;;7.45;6.50;;;8.20;79.60;;;;;;5015402;28;20045;-64
2023/05/03 03:03:35;;;;;;;8.43;6.70;;;8.10;79.60;;;;;;5016001;28;20040;-64
2023/05/03 03:06:00;;;;;;;7.05;6.15;;;8.00;79.70;;;;;;5016185;28;20046;-64
2023/05/03 03:08:26;;;;;;;9.30;6.05;;;8.00;79.70;;;;;;5014254;28;20038;-64
2023/05/03 03:10:52;;;;;;;6.88;5.95;;;8.00;79.90;;;;;;5013995;28;20572;-62
2023/05/03 03:13:17;;;;;;;6.40;5.60;;;7.90;79.90;;;;;;5016597;28;20049;-64
2023/05/03 03:15:43;;;;;;;8.80;6.40;;;8.00;80.00;;;;;;5013731;28;20033;-64
2023/05/03 03:18:08;;;;;;;9.32;6.80;;;7.90;80.00;;;;;;5017624;28;20553;-64
2023/05/03 03:20:34;;;;;;;7.18;6.13;;;7.90;80.00;;;;;;5015168;28;20030;-64
2023/05/03 03:23:00;;;;;;;9.65;6.75;;;7.90;80.10;;;;;;5014093;28;20061;-64
2023/05/03 03:25:25;;;;;;;8.43;7.25;;;7.90;80.40;;;;;;5014188;28;20091;-64
2023/05/03 03:27:51;;;;;;;9.25;7.20;;;7.80;80.30;;;;;;5014858;28;20065;-64
2023/05/03 03:30:16;;;;;;;8.32;6.88;;;7.80;80.30;;;;;;5014661;28;20034;-64
2023/05/03 03:32:42;;;;;;;9.07;7.47;;;7.80;80.30;;;;;;5016520;28;20216;-64
2023/05/03 03:35:09;;;;;;;10.55;7.50;;;7.80;80.50;;;;;;5016816;28;20128;-64
2023/05/03 03:37:34;;;;;;;10.07;7.28;;;7.70;80.40;;;;;;5014661;28;20544;-64
2023/05/03 03:40:00;;;;;;;8.40;7.07;;;7.70;81.20;;;;;;5017581;28;20137;-64
2023/05/03 03:42:26;;;;;;;7.85;6.88;;;7.70;80.40;;;;;;5016339;28;20324;-64
2023/05/03 03:44:51;;;;;;;10.65;7.13;;;7.70;80.50;;;;;;5016404;28;20029;-64
2023/05/03 03:47:17;;;;;;;8.07;6.78;;;7.60;80.50;;;;;;5013306;28;20075;-64
2023/05/03 03:49:43;;;;;;;7.20;6.25;;;7.60;80.50;;;;;;5012741;28;20105;-64
2023/05/03 03:52:08;;;;;;;8.25;6.63;;;7.60;80.40;;;;;;5015975;28;20046;-64
2023/05/03 03:54:34;;;;;;;8.80;6.85;;;7.60;80.50;;;;;;5012585;28;20528;-64
2023/05/03 03:57:01;;;;;;;8.23;6.70;;;7.60;80.60;;;;;;5016009;28;20492;-64
2023/05/03 03:59:28;;;;;;;9.27;6.47;;;7.50;80.50;;;;;;5017280;28;20564;-64
2023/05/03 04:01:53;;;;;;;8.82;6.35;;;7.50;80.60;;;;;;5016325;28;20171;-64
2023/05/03 04:04:19;;;;;;;11.48;6.90;;;7.50;80.80;;;;;;5014604;28;20038;-64
2023/05/03 04:06:45;;;;;;;9.57;7.30;;;7.50;81.00;;;;;;5013496;28;20056;-62
2023/05/03 04:09:10;;;;;;;9.15;7.82;;;7.50;81.20;;;;;;5014799;28;20037;-64
2023/05/03 04:11:36;;;;;;;10.00;7.63;;;7.50;81.20;;;;;;5016834;28;20157;-64
2023/05/03 04:14:03;;;;;;;10.68;8.23;;;7.50;81.50;;;;;;5015793;28;20061;-64
2023/05/03 04:16:28;;;;;;;13.05;9.07;;;7.50;81.70;;;;;;5011376;28;20628;-65
2023/05/03 04:18:54;;;;;;;11.27;8.15;;;7.50;81.90;;;;;;5014750;28;20030;-64
2023/05/03 04:21:20;;;;;;;9.00;7.57;;;7.50;82.10;;;;;;5016587;28;20049;-64
2023/05/03 04:23:46;;;;;;;12.32;8.40;;;7.50;82.10;;;;;;5008907;28;20049;-64
2023/05/03 04:26:11;;;;;;;12.13;9.65;;;7.60;82.20;;;;;;5012553;28;20044;-64
2023/05/03 04:28:38;;;;;;;16.63;13.68;;;7.70;82.30;;;;;;5017076;28;20433;-64
2023/05/03 04:31:04;;;;;;;18.80;12.90;;;7.70;82.40;;;;;;5015770;28;20071;-63
2023/05/03 04:33:30;;;;;;;14.63;12.65;;;7.80;82.40;;;;;;5016560;28;20521;-63
2023/05/03 04:35:56;;;;;;;18.35;12.75;;;7.80;82.60;;;;;;5015272;28;20045;-63
2023/05/03 04:38:22;;;;;;;14.10;11.55;;;7.90;82.90;;;;;;5016949;28;20136;-64
2023/05/03 04:40:48;;;;;;;11.45;10.18;;;7.90;83.10;;;;;;5016876;28;20041;-64
2023/05/03 04:43:14;;;;;;;16.35;11.48;;;8.00;83.10;;;;;;5016600;28;20041;-64
2023/05/03 04:45:40;;;;;;;14.98;10.57;;;8.00;83.10;;;;;;5016499;28;20096;-64
2023/05/03 04:48:06;;;;;;;13.43;11.57;;;8.10;83.30;;;;;;5016220;28;20123;-64
2023/05/03 04:50:33;;;;;;;12.20;10.20;;;8.20;83.50;;;;;;5015965;28;20042;-62
2023/05/03 04:52:58;;;;;;;14.10;10.35;;;8.20;83.80;;;;;;5017592;28;20041;-64
2023/05/03 04:55:24;;;;;;;13.82;10.65;;;8.30;84.50;;;;;;5015746;28;20033;-63
2023/05/03 04:57:50;;;;;;;16.52;10.35;;;8.40;85.00;;;;;;5017156;28;20026;-63
2023/05/03 05:00:15;;;;;;;14.48;10.75;;;8.40;85.30;;;;;;5015663;28;20048;-64
2023/05/03 05:02:42;;;;;;;19.65;11.95;;;8.50;85.70;;;;;;5016736;28;20032;-64
2023/05/03 05:05:08;;;;;;;14.30;11.10;;;8.60;86.00;;;;;;5015059;28;20025;-64
2023/05/03 05:07:34;;;;;;;17.25;12.15;;;8.70;86.40;;;;;;5016518;28;20036;-64
2023/05/03 05:09:59;;;;;;;15.60;11.65;;;8.80;86.60;;;;;;5017099;28;20037;-62
2023/05/03 05:12:26;;;;;;;18.52;12.38;;;8.90;86.80;;;;;;5018029;28;20033;-64
2023/05/03 05:14:51;;;;;;;16.98;11.48;;;9.00;86.90;;;;;;5016207;28;20181;-63
2023/05/03 05:17:17;;;;;;;15.20;11.65;;;9.00;86.80;;;;;;5018100;28;20140;-64
2023/05/03 05:19:42;;;;;;;16.80;12.10;;;9.10;86.80;;;;;;5016572;28;20061;-63
2023/05/03 05:22:08;;;;;;;16.65;12.25;;;9.20;86.90;;;;;;5015480;28;20521;-63
2023/05/03 05:24:33;;;;;;;20.08;13.10;;;9.30;87.00;;;;;;5017069;28;20406;-63
2023/05/03 05:27:00;;;;;;;18.30;12.38;;;9.40;87.10;;;;;;5015763;28;20105;-64
2023/05/03 05:29:25;;;;;;;17.13;12.05;;;9.40;87.10;;;;;;5016596;28;20037;-63
2023/05/03 05:31:51;;;;;;;17.83;12.98;;;9.50;87.10;;;;;;5016683;28;20616;-63
2023/05/03 05:34:17;;;;;;;20.25;12.50;;;9.50;87.00;;;;;;5014602;28;20038;-64
2023/05/03 05:36:42;;;;;;;19.45;13.27;;;9.60;86.90;;;;;;5016024;28;20044;-63
2023/05/03 05:39:08;;;;;;;21.17;14.20;;;9.70;87.10;;;;;;5014356;28;20517;-64
2023/05/03 05:41:34;;;;;;;18.10;13.05;;;9.70;87.00;;;;;;5015693;28;20083;-63
2023/05/03 05:44:00;;;;;;;18.08;13.65;;;9.80;87.10;;;;;;5013811;28;20037;-64
2023/05/03 05:46:25;;;;;;;19.35;13.27;;;9.90;87.10;;;;;;5016481;28;20029;-64
2023/05/03 05:48:51;;;;;;;19.92;13.70;;;10.00;87.20;;;;;;5015844;28;20065;-64
2023/05/03 05:51:17;;;;;;;19.40;13.57;;;10.00;87.10;;;;;;5014622;28;20524;-64
2023/05/03 05:53:42;;;;;;;19.23;13.85;;;10.00;86.90;;;;;;5014198;28;20126;-64
2023/05/03 05:56:08;;;;;;;19.80;13.43;;;10.10;86.90;;;;;;5014509;28;20030;-64
2023/05/03 05:58:36;;;;;;;18.35;13.00;;;10.10;87.10;;;;;;5015666;28;20026;-63
2023/05/03 06:01:02;;;;;;;21.60;15.35;;;10.20;87.10;;;;;;5015734;28;20645;-64
2023/05/03 06:03:28;;;;;;;20.15;14.32;;;10.30;87.00;;;;;;5016401;28;20594;-64
2023/05/03 06:05:54;;;;;;;20.08;14.48;;;10.30;86.90;;;;;;5016162;28;20041;-64
2023/05/03 06:08:20;;;;;;;20.70;14.43;;;10.40;86.90;;;;;;5015888;28;20043;-64
2023/05/03 06:10:45;;;;;;;20.38;13.88;;;10.40;86.90;;;;;;5019283;28;20112;-64
2023/05/03 06:13:11;;;;;;;17.98;13.88;;;10.40;86.80;;;;;;5015637;28;20487;-64
2023/05/03 06:15:36;;;;;;;21.02;15.10;;;10.50;86.70;;;;;;5016533;28;20533;-64
2023/05/03 06:18:03;;;;;;;21.48;15.80;;;10.60;86.70;;;;;;5015208;28;20485;-64
2023/05/03 06:20:29;;;;;;;19.92;14.50;;;10.60;86.70;;;;;;5014482;28;20041;-64
2023/05/03 06:22:54;;;;;;;21.25;14.65;;;10.70;86.60;;;;;;5015135;28;20068;-64
2023/05/03 06:25:20;;;;;;;19.65;14.45;;;10.70;86.50;;;;;;5015975;28;20094;-64
2023/05/03 06:27:45;;;;;;;18.85;14.27;;;10.70;86.50;;;;;;5013849;28;20033;-64
2023/05/03 06:30:12;;;;;;;19.98;14.15;;;10.80;87.10;;;;;;5014469;28;20048;-64
2023/05/03 06:32:39;;;;;;;19.60;14.95;;;10.80;86.20;;;;;;5016243;28;20066;-63
2023/05/03 06:35:05;;;;;;;18.88;13.73;;;10.80;86.20;;;;;;5016051;28;20051;-64
2023/05/03 06:37:31;;;;;;;19.20;14.23;;;10.80;86.00;;;;;;5014204;28;20117;-63
2023/05/03 06:39:56;;;;;;;19.00;14.00;;;10.90;86.10;;;;;;5016285;28;20125;-64
2023/05/03 06:42:22;;;;;;;18.35;14.02;;;10.80;86.00;;;;;;5017250;28;20084;-64
2023/05/03 06:44:48;;;;;;;19.45;14.40;;;10.90;86.00;;;;;;5014903;28;20037;-64
2023/05/03 06:47:13;;;;;;;20.15;14.20;;;10.90;86.00;;;;;;5015366;28;20506;-63
2023/05/03 06:49:40;;;;;;;19.92;14.50;;;10.90;85.90;;;;;;5016718;28;20034;-64
2023/05/03 06:52:06;;;;;;;18.20;14.02;;;10.90;85.90;;;;;;5015536;28;20042;-63
2023/05/03 06:54:31;;;;;;;19.60;13.95;;;10.90;85.80;;;;;;5015063;28;20029;-64
2023/05/03 06:56:57;;;;;;;18.20;13.85;;;10.90;85.70;;;;;;5019477;28;20433;-64
2023/05/03 06:59:23;;;;;;;20.20;14.73;;;10.90;85.70;;;;;;5017136;28;20076;-64
2023/05/03 07:01:49;;;;;;;17.42;13.57;;;10.90;85.80;;;;;;5018179;28;20108;-64
2023/05/03 07:04:15;;;;;;;19.30;14.73;;;11.00;85.80;;;;;;5017468;28;20030;-63
2023/05/03 07:06:41;;;;;;;18.05;14.10;;;11.00;85.90;;;;;;5016923;28;20034;-64
2023/05/03 07:09:07;;;;;;;19.70;14.02;;;11.00;86.00;;;;;;5017513;28;20034;-64
2023/05/03 07:11:36;;;;;;;18.73;14.55;;;11.00;86.10;;;;;;5019701;28;20053;-64
2023/05/03 07:14:01;;;;;;;20.63;14.43;;;11.10;86.20;;;;;;5018042;28;20113;-63
2023/05/03 07:16:27;;;;;;;18.02;14.30;;;11.10;86.00;;;;;;5018334;28;20437;-64
2023/05/03 07:18:53;;;;;;;19.05;13.70;;;11.10;85.90;;;;;;5016991;28;20163;-64
2023/05/03 07:21:18;;;;;;;22.27;14.63;;;11.20;86.00;;;;;;5019297;28;20038;-64
2023/05/03 07:23:44;;;;;;;19.35;14.13;;;11.20;86.00;;;;;;5019304;28;20045;-64
2023/05/03 07:26:09;;;;;;;18.88;14.60;;;11.20;85.90;;;;;;5020477;28;20505;-63
2023/05/03 07:28:35;;;;;;;17.52;13.82;;;11.30;85.90;;;;;;5016615;28;20034;-64
2023/05/03 07:31:02;;;;;;;20.77;14.32;;;11.30;85.90;;;;;;5018035;28;20429;-63
2023/05/03 07:33:28;;;;;;;18.70;14.35;;;11.40;85.90;;;;;;5018778;28;20092;-64
2023/05/03 07:35:53;;;;;;;18.38;14.07;;;11.40;85.90;;;;;;5017058;28;20521;-63
2023/05/03 07:38:19;;;;;;;21.08;14.63;;;11.40;85.70;;;;;;5019943;28;20522;-64
2023/05/03 07:40:45;;;;;;;19.42;13.60;;;11.50;85.90;;;;;;5015920;28;20128;-64
2023/05/03 07:43:11;;;;;;;18.00;13.80;;;11.50;85.80;;;;;;5017518;28;20050;-64
2023/05/03 07:45:37;;;;;;;19.23;14.02;;;11.60;85.70;;;;;;5017229;28;20042;-64
2023/05/03 07:48:03;;;;;;;19.98;14.23;;;11.60;85.50;;;;;;5017145;28;20052;-64
2023/05/03 07:50:30;;;;;;;18.20;14.32;;;11.70;85.50;;;;;;5017158;28;20034;-64
2023/05/03 07:52:55;;;;;;;18.15;13.98;;;11.70;85.50;;;;;;5017922;28;20512;-64
2023/05/03 07:55:22;;;;;;;18.42;13.70;;;11.70;85.40;;;;;;5017876;28;20046;-64
2023/05/03 07:57:47;;;;;;;17.65;13.05;;;11.70;85.30;;;;;;5017862;28;20163;-64
2023/05/03 08:00:14;;;;;;;16.38;12.80;;;11.80;85.20;;;;;;5016911;28;20531;-63
2023/05/03 08:02:40;;;;;;;18.48;13.65;;;11.90;85.90;;;;;;5012781;28;20037;-63
2023/05/03 08:05:07;;;;;;;16.90;13.15;;;11.90;84.90;;;;;;5016850;28;20094;-64
2023/05/03 08:07:33;;;;;;;19.80;13.57;;;11.90;84.60;;;;;;5019964;28;20034;-63
2023/05/03 08:09:59;;;;;;;17.27;13.23;;;11.90;84.50;;;;;;5020948;28;20038;-63
2023/05/03 08:12:25;;;;;;;16.83;12.57;;;11.90;84.40;;;;;;5018221;28;20168;-64
2023/05/03 08:14:54;;;;;;;15.73;12.73;;;12.00;84.50;;;;;;5018374;28;20041;-64
2023/05/03 08:17:21;;;;;;;17.38;13.10;;;12.00;84.60;;;;;;5018847;28;20080;-64
2023/05/03 08:19:47;;;;;;;17.73;13.25;;;12.00;84.30;;;;;;5018410;28;20047;-64
2023/05/03 08:22:12;;;;;;;19.38;13.60;;;12.10;84.40;;;;;;5018864;28;20042;-64
2023/05/03 08:24:38;;;;;;;18.38;13.80;;;12.10;84.30;;;;;;5018804;28;20445;-64
2023/05/03 08:27:08;;;;;;;24.13;16.52;;;12.20;84.40;;;;;;5017530;28;20026;-64
2023/05/03 08:29:36;;;;;;;22.58;16.55;;;12.20;84.10;;;;;;5018612;28;20521;-64
2023/05/03 08:32:03;;;;;;;20.40;15.65;;;12.20;84.80;;;;;;5018140;28;20041;-64
2023/05/03 08:34:29;;;;;;;19.77;14.85;;;12.30;83.80;;;;;;5017586;28;20037;-64
2023/05/03 08:36:55;;;;;;;21.02;15.07;;;12.30;83.70;;;;;;5019163;28;20235;-64
2023/05/03 08:39:23;;;;;;;19.90;14.82;;;12.30;83.50;;;;;;5017199;28;20037;-64
2023/05/03 08:41:49;;;;;;;20.55;14.48;;;12.30;83.60;;;;;;5019033;28;20102;-64
2023/05/03 08:44:24;;;;;;;19.70;14.55;;;12.30;83.60;;;;;;5015793;28;20045;-64
2023/05/03 08:46:50;;;;;;;19.75;14.95;;;12.30;83.50;;;;;;5019003;28;20489;-63
2023/05/03 08:49:20;;;;;;;18.02;13.93;;;12.40;83.40;;;;;;5017261;28;20051;-64
2023/05/03 08:51:48;;;;;;;17.85;13.48;;;12.40;83.60;;;;;;5019173;28;20489;-63
2023/05/03 08:54:15;;;;;;;17.63;13.77;;;12.50;83.40;;;;;;5017520;28;20096;-64
2023/05/03 08:56:42;;;;;;;17.98;13.73;;;12.50;83.40;;;;;;5015620;28;20046;-64
2023/05/03 08:59:10;;;;;;;19.55;14.25;;;12.50;83.30;;;;;;5017297;28;20033;-63
2023/05/03 09:01:37;;;;;;;18.88;13.70;;;12.50;83.30;;;;;;5019248;28;20116;-64
2023/05/03 09:04:04;;;;;;;19.05;13.75;;;12.50;83.30;;;;;;5016348;28;20049;-64
2023/05/03 09:06:31;;;;;;;18.30;14.02;;;12.60;83.40;;;;;;5017183;28;20112;-63
2023/05/03 09:08:58;;;;;;;20.45;15.35;;;12.60;83.40;;;;;;5019319;28;20088;-64
2023/05/03 09:11:35;;;;;;;22.05;14.73;;;12.70;83.10;;;;;;5016934;28;20397;-63
2023/05/03 09:14:15;;;;;;;22.67;15.95;;;12.70;83.10;;;;;;5015898;28;20030;-64
2023/05/03 09:16:45;;;;;;;20.17;14.25;;;12.70;82.70;;;;;;5017307;28;20525;-63
2023/05/03 09:19:13;;;;;;;21.17;14.80;;;12.70;82.70;;;;;;5017493;28;20444;-63
2023/05/03 09:21:40;;;;;;;20.92;15.88;;;12.70;82.90;;;;;;5017203;28;20117;-63
2023/05/03 09:24:21;;;;;;;20.10;14.45;;;12.70;83.10;;;;;;5018739;28;20120;-63
2023/05/03 09:26:50;;;;;;;19.73;13.95;;;12.80;83.10;;;;;;5016529;28;20080;-64
2023/05/03 09:29:48;;;;;;;17.05;13.65;;;12.80;83.00;;;;;;5017147;28;20089;-64
2023/05/03 09:32:15;;;;;;;20.90;16.20;;;12.90;83.60;;;;;;5027001;28;20390;-64
2023/05/03 09:34:42;;;;;;;18.95;14.18;;;13.00;83.30;;;;;;5016277;28;20029;-64
2023/05/03 09:37:07;;;;;;;20.23;15.07;;;13.00;83.10;;;;;;5017682;28;20587;-63
2023/05/03 09:39:35;;;;;;;17.48;13.77;;;13.00;83.10;;;;;;5016404;28;20045;-64
2023/05/03 09:42:15;;;;;;;20.73;14.85;;;13.10;83.20;;;;;;5015257;28;20627;-63
2023/05/03 09:44:42;;;;;;;25.50;16.90;;;13.20;83.30;;;;;;5015071;28;20045;-64
2023/05/03 09:47:08;;;;;;;21.30;15.88;;;13.30;83.10;;;;;;5016352;28;20030;-64
2023/05/03 09:49:35;;;;;;;18.40;14.32;;;13.30;82.90;;;;;;5016662;28;20033;-64
2023/05/03 09:52:02;;;;;;;18.42;14.43;;;13.40;82.90;;;;;;5016647;28;20029;-64
2023/05/03 09:54:30;;;;;;;17.85;14.15;;;13.50;82.50;;;;;;5016699;28;20049;-64
2023/05/03 09:56:56;;;;;;;17.95;13.98;;;13.60;82.60;;;;;;5017369;28;20037;-64
2023/05/03 09:59:22;;;;;;;22.88;16.77;;;13.60;82.00;;;;;;5015941;28;20531;-64
2023/05/03 10:01:51;;;;;;;16.00;14.18;;;13.70;81.40;;;;;;5016326;28;20030;-64
2023/05/03 10:04:19;;;;;;;17.08;13.40;;;13.70;81.20;;;;;;5015028;28;20083;-64
2023/05/03 10:06:48;;;;;;;16.85;13.77;;;13.70;81.50;;;;;;5017913;28;20045;-63
2023/05/03 10:09:19;;;;;;;16.83;13.43;;;13.70;81.40;;;;;;5016992;28;20494;-64
2023/05/03 10:11:51;;;;;;;16.15;12.95;;;13.80;81.30;;;;;;5019516;28;20545;-64
2023/05/03 10:14:17;;;;;;;16.73;12.85;;;13.80;81.00;;;;;;5016812;28;20157;-64
2023/05/03 10:16:47;;;;;;;14.85;12.68;;;13.90;81.00;;;;;;5015991;28;20124;-64
2023/05/03 10:19:28;;;;;;;17.48;12.50;;;14.00;81.00;;;;;;5015748;28;20555;-64
2023/05/03 10:22:05;;;;;;;17.33;13.52;;;14.00;80.80;;;;;;5016397;28;20041;-64
2023/05/03 10:24:31;;;;;;;17.20;13.73;;;14.10;80.50;;;;;;5013983;28;20478;-63
2023/05/03 10:26:57;;;;;;;18.73;13.75;;;14.20;80.60;;;;;;5016855;28;20033;-64
2023/05/03 10:29:32;;;;;;;16.30;13.30;;;14.20;80.50;;;;;;5018753;28;20121;-64
2023/05/03 10:31:57;;;;;;;15.10;12.88;;;14.30;80.10;;;;;;5020077;28;20030;-63
2023/05/03 10:34:29;;;;;;;18.80;13.05;;;14.30;80.00;;;;;;5019665;28;20080;-64
2023/05/03 10:36:55;;;;;;;15.57;12.45;;;14.40;79.90;;;;;;5019842;28;20041;-64
2023/05/03 10:39:21;;;;;;;16.67;12.00;;;14.40;79.80;;;;;;5019588;28;20425;-64
2023/05/03 10:41:57;;;;;;;18.08;14.13;;;14.50;79.60;;;;;;5021945;28;20026;-64
2023/05/03 10:44:37;;;;;;;16.15;13.18;;;14.50;78.90;;;;;;5020980;28;20275;-64
2023/05/03 10:47:14;;;;;;;16.27;12.45;;;14.60;78.90;;;;;;5021665;28;20091;-64
2023/05/03 10:49:40;;;;;;;17.63;13.00;;;14.70;79.10;;;;;;5020662;28;20044;-64
2023/05/03 10:52:46;;;;;;;15.35;12.90;;;14.70;78.40;;;;;;5018722;28;20397;-64
2023/05/03 10:55:14;;;;;;;14.45;11.65;;;14.80;78.20;;;;;;5037977;28;20076;-64
2023/05/03 10:57:41;;;;;;;15.75;12.55;;;14.80;78.60;;;;;;5037811;28;20702;-64
2023/05/03 11:00:42;;;;;;;16.75;12.88;;;14.80;78.40;;;;;;5030032;28;20042;-63
2023/05/03 11:03:17;;;;;;;15.93;12.75;;;14.90;77.80;;;;;;5019713;28;20034;-64
2023/05/03 11:05:43;;;;;;;15.15;12.07;;;15.00;77.90;;;;;;5021146;28;20289;-64
2023/05/03 11:08:24;;;;;;;13.93;11.65;;;15.00;78.00;;;;;;5021170;28;20034;-64
2023/05/03 11:10:57;;;;;;;14.27;12.30;;;15.10;77.80;;;;;;5021129;28;20730;-64
2023/05/03 11:13:23;;;;;;;14.57;11.55;;;15.10;77.20;;;;;;5019780;28;20068;-63
2023/05/03 11:15:49;;;;;;;14.55;11.68;;;15.20;77.40;;;;;;5020120;28;20497;-64
2023/05/03 11:18:15;;;;;;;15.45;11.82;;;15.20;77.70;;;;;;5021084;28;20034;-64
2023/05/03 11:20:41;;;;;;;16.08;11.68;;;15.30;76.70;;;;;;5019128;28;20121;-64
2023/05/03 11:23:07;;;;;;;11.82;10.43;;;15.40;76.50;;;;;;5020572;28;20120;-64
2023/05/03 11:25:33;;;;;;;12.25;10.88;;;15.40;76.60;;;;;;5021092;28;20038;-64
2023/05/03 11:28:00;;;;;;;15.82;10.98;;;15.50;76.30;;;;;;5019994;28;20045;-64
2023/05/03 11:30:28;;;;;;;12.45;10.55;;;15.50;76.00;;;;;;5019946;28;20087;-64
2023/05/03 11:32:53;;;;;;;12.77;10.75;;;15.60;76.00;;;;;;5020430;28;20301;-64
2023/05/03 11:35:22;;;;;;;13.60;11.68;;;15.70;75.80;;;;;;5018070;28;20390;-64
2023/05/03 11:37:48;;;;;;;12.40;10.77;;;15.70;75.60;;;;;;5017212;28;20037;-64
2023/05/03 11:40:15;;;;;;;12.57;10.23;;;15.80;76.10;;;;;;5017458;28;20045;-64
2023/05/03 11:42:54;;;;;;;13.40;10.27;;;15.90;75.60;;;;;;5020606;28;20037;-64
2023/05/03 11:45:21;;;;;;;13.70;10.52;;;16.00;74.60;;;;;;5019564;28;20041;-62
2023/05/03 11:47:47;;;;;;;11.68;10.27;;;16.00;75.00;;;;;;5020606;28;21300;-64
2023/05/03 11:50:13;;;;;;;13.85;11.13;;;16.10;75.00;;;;;;5017979;28;20041;-64
2023/05/03 11:52:40;;;;;;;12.82;9.80;;;16.20;74.60;;;;;;5018310;28;20166;-64
2023/05/03 11:55:06;;;;;;;12.95;10.50;;;16.30;74.40;;;;;;5017971;28;20529;-64
2023/05/03 11:57:32;;;;;;;11.95;10.25;;;16.40;74.30;;;;;;5020027;28;20125;-64
2023/05/03 12:00:16;;;;;;;10.88;9.75;;;16.40;74.00;;;;;;5017879;28;20133;-64
2023/05/03 12:02:47;;;;;;;10.43;9.32;;;16.40;73.30;;;;;;5017932;28;20022;-64
2023/05/03 12:05:12;;;;;;;12.98;9.00;;;16.50;73.50;;;;;;5017339;28;20045;-64
2023/05/03 12:07:38;;;;;;;10.00;8.50;;;16.60;73.30;;;;;;5018108;28;20033;-64
2023/05/03 12:10:17;;;;;;;10.00;8.27;;;16.60;73.30;;;;;;5019474;28;20065;-64
2023/05/03 12:12:53;;;;;;;10.85;8.57;;;16.70;72.40;;;;;;5019909;28;20033;-64
2023/05/03 12:15:33;;;;;;;9.15;7.95;;;16.80;72.00;;;;;;5019370;28;20034;-63
2023/05/03 12:18:01;;;;;;;9.10;8.05;;;16.90;71.20;;;;;;5017515;28;20128;-64
2023/05/03 12:20:31;;;;;;;9.55;8.23;;;16.90;71.10;;;;;;5018011;28;20401;-64
2023/05/03 12:23:07;;;;;;;7.70;6.88;;;17.00;70.40;;;;;;5016338;28;20054;-64
2023/05/03 12:25:35;;;;;;;8.68;7.30;;;17.10;70.20;;;;;;5018662;28;20037;-64
2023/05/03 12:28:04;;;;;;;9.32;6.40;;;17.10;70.40;;;;;;5024690;28;20501;-64
2023/05/03 12:30:31;;;;;;;8.38;7.53;;;17.10;70.70;;;;;;5017921;28;20501;-64
2023/05/03 12:32:57;;;;;;;9.00;7.78;;;17.20;71.30;;;;;;5017280;28;20048;-64
2023/05/03 12:35:23;;;;;;;9.65;8.65;;;17.30;70.90;;;;;;5019627;28;20423;-64
2023/05/03 12:37:49;;;;;;;8.40;7.43;;;17.40;70.00;;;;;;5017118;28;20037;-64
2023/05/03 12:40:17;;;;;;;8.05;7.20;;;17.50;70.20;;;;;;5018700;28;20041;-64